createdAt,value
2022-11-21T00:02:32.104Z,1.38
2022-11-21T00:06:35.121Z,1.42
2022-11-21T00:10:39.513Z,1.88
2022-11-21T00:14:42.552Z,1.33
2022-11-21T00:18:46.885Z,2.33
2022-11-21T00:22:50.020Z,2.45
2022-11-21T00:26:53.019Z,1.48
2022-11-21T00:30:56.031Z,1.67
2022-11-21T00:35:00.449Z,1.58
2022-11-21T00:39:03.491Z,1.10
2022-11-21T00:43:06.493Z,1.20
2022-11-21T00:47:09.535Z,1.88
2022-11-21T00:51:13.880Z,1.55
2022-11-21T00:55:16.921Z,2.20
2022-11-21T00:59:20.650Z,0.90
2022-11-21T01:03:23.630Z,1.85
2022-11-21T01:07:28.234Z,2.22
2022-11-21T01:11:31.644Z,0.93
2022-11-21T01:15:35.205Z,1.40
2022-11-21T01:19:38.305Z,1.75
2022-11-21T01:23:43.251Z,1.48
2022-11-21T01:27:46.256Z,1.95
2022-11-21T01:31:50.066Z,1.20
2022-11-21T01:35:53.051Z,1.35
2022-11-21T01:39:57.389Z,1.70
2022-11-21T01:44:00.559Z,1.50
2022-11-21T01:48:03.924Z,2.03
2022-11-21T01:52:12.276Z,2.03
2022-11-21T01:56:17.248Z,1.85
2022-11-21T02:00:25.035Z,1.77
2022-11-21T02:04:32.056Z,1.67
2022-11-21T02:08:35.405Z,1.23
2022-11-21T02:12:46.918Z,1.85
2022-11-21T02:16:50.986Z,1.13
2022-11-21T02:21:00.850Z,1.33
2022-11-21T02:25:08.127Z,1.60
2022-11-21T02:29:11.322Z,1.27
2022-11-21T02:33:15.352Z,1.75
2022-11-21T02:37:19.264Z,1.83
2022-11-21T02:41:27.385Z,1.33
2022-11-21T02:45:35.038Z,1.38
2022-11-21T02:49:43.516Z,2.00
2022-11-21T02:53:46.631Z,1.17
2022-11-21T02:57:51.114Z,1.25
2022-11-21T03:01:54.124Z,1.48
2022-11-21T03:05:57.768Z,1.27
2022-11-21T03:10:00.802Z,1.17
2022-11-21T03:14:05.181Z,1.45
2022-11-21T03:18:08.354Z,1.52
2022-11-21T03:22:11.888Z,0.90
2022-11-21T03:26:14.908Z,1.00
2022-11-21T03:30:19.794Z,1.35
2022-11-21T03:34:22.844Z,0.60
2022-11-21T03:38:25.920Z,1.30
2022-11-21T03:42:28.966Z,1.20
2022-11-21T03:46:35.397Z,1.38
2022-11-21T03:50:38.408Z,1.45
2022-11-21T03:54:41.420Z,1.23
2022-11-21T03:58:45.229Z,1.25
2022-11-21T04:02:49.561Z,1.50
2022-11-21T04:06:52.577Z,1.20
2022-11-21T04:10:56.577Z,0.98
2022-11-21T04:14:59.606Z,1.00
2022-11-21T04:19:04.157Z,1.77
2022-11-21T04:23:07.773Z,1.42
2022-11-21T04:27:10.773Z,1.25
2022-11-21T04:31:14.247Z,1.70
2022-11-21T04:35:18.889Z,2.13
2022-11-21T04:39:21.873Z,1.30
2022-11-21T04:43:24.997Z,2.30
2022-11-21T04:47:28.010Z,1.45
2022-11-21T04:51:32.353Z,2.10
2022-11-21T04:55:35.453Z,2.10
2022-11-21T04:59:38.489Z,3.08
2022-11-21T05:03:41.512Z,2.05
2022-11-21T05:07:45.954Z,2.35
2022-11-21T05:12:06.406Z,3.38
2022-11-21T05:16:09.423Z,2.92
2022-11-21T05:20:13.353Z,2.55
2022-11-21T05:24:17.744Z,3.63
2022-11-21T05:28:23.162Z,2.70
2022-11-21T05:32:29.196Z,2.85
2022-11-21T05:36:34.938Z,2.33
2022-11-21T05:40:40.136Z,3.25
2022-11-21T05:44:43.145Z,4.50
2022-11-21T05:48:47.050Z,3.55
2022-11-21T05:52:50.263Z,4.10
2022-11-21T05:56:54.679Z,2.85
2022-11-21T06:00:59.997Z,3.80
2022-11-21T06:05:03.227Z,3.03
2022-11-21T06:09:06.389Z,3.22
2022-11-21T06:13:22.154Z,3.63
2022-11-21T06:17:25.375Z,3.25
2022-11-21T06:21:30.206Z,3.45
2022-11-21T06:25:33.272Z,3.22
2022-11-21T06:29:37.666Z,3.92
2022-11-21T06:33:42.683Z,3.25
2022-11-21T06:37:50.773Z,3.45
2022-11-21T06:41:56.354Z,4.07
2022-11-21T06:46:03.333Z,4.40
2022-11-21T06:50:07.184Z,3.58
2022-11-21T06:54:13.865Z,4.38
2022-11-21T06:58:19.865Z,3.58
2022-11-21T07:02:24.350Z,3.17
2022-11-21T07:06:27.503Z,3.90
2022-11-21T07:10:31.629Z,3.60
2022-11-21T07:14:34.663Z,3.55
2022-11-21T07:18:39.032Z,3.75
2022-11-21T07:22:42.603Z,3.72
2022-11-21T07:26:45.662Z,3.47
2022-11-21T07:30:48.721Z,3.17
2022-11-21T07:34:53.390Z,3.50
2022-11-21T07:38:56.476Z,3.10
2022-11-21T07:43:06.691Z,3.67
2022-11-21T07:47:13.622Z,3.58
2022-11-21T07:51:18.077Z,4.43
2022-11-21T07:55:21.078Z,4.82
2022-11-21T07:59:24.669Z,3.78
2022-11-21T08:03:27.813Z,4.93
2022-11-21T08:07:32.385Z,3.72
2022-11-21T08:11:37.274Z,3.55
2022-11-21T08:15:40.345Z,4.85
2022-11-21T08:19:43.665Z,4.32
2022-11-21T08:23:48.176Z,5.40
2022-11-21T08:27:51.526Z,4.82
2022-11-21T08:31:54.564Z,4.43
2022-11-21T08:35:57.654Z,3.72
2022-11-21T08:40:02.479Z,3.25
2022-11-21T08:44:11.146Z,3.45
2022-11-21T08:48:16.784Z,3.72
2022-11-21T08:52:19.849Z,3.70
2022-11-21T08:56:24.549Z,3.53
2022-11-21T09:00:27.753Z,2.75
2022-11-21T09:04:30.896Z,3.05
2022-11-21T09:08:35.028Z,2.20
2022-11-21T09:12:39.499Z,2.15
2022-11-21T09:17:02.195Z,2.42
2022-11-21T09:21:05.553Z,1.77
2022-11-21T09:25:09.369Z,1.85
2022-11-21T09:29:15.173Z,1.42
2022-11-21T09:33:18.522Z,1.30
2022-11-21T09:37:21.697Z,1.95
2022-11-21T09:41:50.166Z,0.80
2022-11-21T09:46:03.593Z,1.25
2022-11-21T09:50:25.429Z,1.20
2022-11-21T09:54:34.917Z,0.80
2022-11-21T09:58:42.739Z,1.13
2022-11-21T10:02:47.405Z,1.10
2022-11-21T10:06:58.541Z,1.05
2022-11-21T10:11:19.433Z,0.88
2022-11-21T10:15:33.418Z,1.33
2022-11-21T10:19:53.922Z,0.80
2022-11-21T10:24:13.344Z,0.73
2022-11-21T10:28:22.962Z,0.90
2022-11-21T10:32:31.417Z,0.77
2022-11-21T10:36:39.280Z,1.20
2022-11-21T10:40:47.378Z,1.02
2022-11-21T10:45:07.671Z,0.80
2022-11-21T10:49:15.074Z,1.48
2022-11-21T10:53:39.831Z,0.77
2022-11-21T10:57:46.726Z,0.90
2022-11-21T11:01:56.786Z,0.60
2022-11-21T11:05:59.842Z,0.90
2022-11-21T11:10:26.937Z,0.90
2022-11-21T11:14:33.535Z,0.90
2022-11-21T11:18:40.685Z,0.80
2022-11-21T11:22:43.793Z,0.80
2022-11-21T11:26:56.458Z,0.80
2022-11-21T11:30:59.598Z,0.90
2022-11-21T11:35:10.436Z,0.88
2022-11-21T11:39:22.266Z,0.47
2022-11-21T11:43:53.669Z,0.70
2022-11-21T11:47:59.298Z,0.70
2022-11-21T11:52:05.074Z,0.73
2022-11-21T11:56:13.333Z,0.63
2022-11-21T12:00:28.277Z,0.60
2022-11-21T12:04:39.474Z,0.38
2022-11-21T12:08:50.008Z,0.52
2022-11-21T12:13:00.424Z,0.50
2022-11-21T12:17:07.008Z,0.68
2022-11-21T12:21:14.621Z,0.47
2022-11-21T12:25:19.758Z,0.45
2022-11-21T12:29:34.934Z,0.50
2022-11-21T12:33:48.017Z,0.40
2022-11-21T12:38:04.788Z,0.60
2022-11-21T12:42:33.334Z,0.40
2022-11-21T12:46:47.092Z,0.47
2022-11-21T12:51:21.989Z,0.60
2022-11-21T12:55:39.253Z,0.32
2022-11-21T13:00:04.939Z,0.22
2022-11-21T13:04:15.373Z,0.73
2022-11-21T13:08:24.969Z,0.40
2022-11-21T13:12:36.694Z,0.57
2022-11-21T13:16:46.857Z,0.30
2022-11-21T13:20:52.730Z,0.30
2022-11-21T13:24:59.748Z,1.00
2022-11-21T16:09:44.915Z,0.65
2022-11-21T16:13:52.103Z,2.42
2022-11-21T16:17:55.465Z,1.35
2022-11-21T16:21:58.816Z,1.95
2022-11-21T16:26:03.625Z,1.48
2022-11-21T16:30:08.955Z,0.65
2022-11-21T16:34:13.058Z,1.30
2022-11-21T16:38:16.729Z,0.82
2022-11-21T16:42:21.645Z,0.60
2022-11-21T16:46:26.561Z,0.55
2022-11-21T16:50:29.905Z,1.50
2022-11-21T16:54:33.475Z,1.60
2022-11-21T16:58:39.542Z,1.00
2022-11-21T17:02:44.296Z,0.80
2022-11-21T17:06:49.036Z,1.38
2022-11-21T17:10:52.495Z,2.25
2022-11-21T17:14:57.466Z,2.05
2022-11-21T17:19:02.710Z,1.65
2022-11-21T17:23:05.900Z,1.83
2022-11-21T17:27:09.709Z,1.25
2022-11-21T17:31:15.641Z,1.85
2022-11-21T17:35:18.626Z,1.90
2022-11-21T17:39:28.097Z,2.08
2022-11-21T17:43:33.686Z,1.20
2022-11-21T17:47:38.525Z,1.45
2022-11-21T17:51:42.206Z,1.40
2022-11-21T17:55:45.235Z,0.60
2022-11-21T17:59:48.284Z,1.80
2022-11-21T18:03:57.659Z,1.00
2022-11-21T18:08:01.009Z,1.00
2022-11-21T18:12:04.077Z,1.48
2022-11-21T18:16:09.097Z,1.00
2022-11-21T18:20:13.971Z,2.03
2022-11-21T18:24:17.043Z,1.08
2022-11-21T18:28:20.118Z,1.50
2022-11-21T18:32:23.384Z,0.95
2022-11-21T18:36:29.114Z,1.20
2022-11-21T18:40:32.164Z,1.10
2022-11-21T18:44:35.326Z,1.40
2022-11-21T18:49:00.643Z,1.33
2022-11-21T18:53:03.980Z,0.75
2022-11-21T18:57:07.133Z,1.08
2022-11-21T19:01:17.565Z,1.27
2022-11-21T19:05:20.973Z,1.63
2022-11-21T19:09:29.536Z,1.52
2022-11-21T19:13:35.484Z,1.58
2022-11-21T19:17:38.532Z,1.10
2022-11-21T19:21:41.920Z,1.60
2022-11-21T19:25:46.370Z,1.38
2022-11-21T19:29:53.841Z,7.65
2022-11-21T19:33:56.995Z,0.90
2022-11-21T19:38:01.328Z,1.60
2022-11-21T19:42:05.935Z,0.80
2022-11-21T19:46:09.036Z,0.95
2022-11-21T19:50:14.135Z,1.45
2022-11-21T19:54:17.544Z,1.13
2022-11-21T19:58:22.104Z,1.40
2022-11-21T20:02:25.561Z,1.02
2022-11-21T20:06:30.902Z,1.52
2022-11-21T20:10:34.350Z,1.08
2022-11-21T20:14:38.824Z,1.90
2022-11-21T20:18:41.866Z,1.35
2022-11-21T20:22:45.137Z,1.30
2022-11-21T20:26:48.197Z,1.67
2022-11-21T20:30:52.866Z,1.15
2022-11-21T20:34:56.132Z,0.68
2022-11-21T20:39:02.528Z,1.63
2022-11-21T20:43:05.604Z,1.17
2022-11-21T20:47:10.593Z,1.15
2022-11-21T20:52:43.377Z,3.72
2022-11-21T20:55:37.542Z,1.02
2022-11-21T20:59:40.646Z,1.83
2022-11-21T21:03:45.012Z,1.40
2022-11-21T21:07:48.100Z,1.20
2022-11-21T21:11:52.886Z,1.10
2022-11-21T21:15:56.389Z,0.93
2022-11-21T21:20:00.708Z,1.65
2022-11-21T21:24:06.066Z,1.42
2022-11-21T21:28:09.251Z,1.67
2022-11-21T21:32:12.761Z,1.20
2022-11-21T21:36:19.486Z,1.20
2022-11-21T21:40:22.556Z,0.77
2022-11-21T21:44:31.468Z,1.33
2022-11-21T21:48:36.276Z,0.95
2022-11-21T21:52:40.655Z,0.70
2022-11-21T21:56:43.691Z,1.25
2022-11-21T22:00:46.714Z,1.00
2022-11-21T22:04:52.248Z,1.63
2022-11-21T22:08:57.506Z,0.93
2022-11-21T22:13:00.575Z,1.33
2022-11-21T22:17:03.591Z,1.40
2022-11-21T22:21:14.197Z,0.50
2022-11-21T22:25:18.664Z,0.90
2022-11-21T22:29:21.724Z,0.68
2022-11-21T22:33:25.384Z,1.17
2022-11-21T22:37:28.382Z,0.85
2022-11-21T22:41:32.793Z,0.98
2022-11-21T22:45:36.138Z,0.65
2022-11-21T22:49:39.150Z,0.80
2022-11-21T22:53:42.213Z,1.15
2022-11-21T22:57:46.601Z,0.77
2022-11-21T23:01:49.704Z,0.88
2022-11-21T23:05:59.496Z,0.95
2022-11-21T23:10:02.553Z,1.05
2022-11-21T23:14:07.849Z,1.10
2022-11-21T23:18:10.868Z,0.35
2022-11-21T23:22:13.893Z,0.70
2022-11-21T23:26:17.741Z,0.38
2022-11-21T23:30:22.861Z,0.88
2022-11-21T23:34:25.885Z,0.60
2022-11-21T23:38:28.866Z,0.98
2022-11-21T23:42:31.865Z,0.68
2022-11-21T23:46:36.235Z,1.17
2022-11-21T23:50:39.259Z,0.63
2022-11-21T23:54:42.261Z,0.65
2022-11-21T23:58:45.664Z,0.73
